createdAt,value
2023-04-26T00:02:52.209Z,51.55
2023-04-26T00:05:58.247Z,52.61
2023-04-26T00:09:08.248Z,53.35
2023-04-26T00:12:14.952Z,53.44
2023-04-26T00:15:21.833Z,56.46
2023-04-26T00:18:27.818Z,56.26
2023-04-26T00:21:34.881Z,53.25
2023-04-26T00:24:43.650Z,51.52
2023-04-26T00:27:50.770Z,50.12
2023-04-26T00:30:58.275Z,48.15
2023-04-26T00:34:05.101Z,49.19
2023-04-26T00:37:11.012Z,49.84
2023-04-26T00:40:21.051Z,51.78
2023-04-26T00:43:27.046Z,51.75
2023-04-26T00:46:34.107Z,49.41
2023-04-26T00:49:40.426Z,48.70
2023-04-26T00:52:50.304Z,48.20
2023-04-26T00:55:59.306Z,49.07
2023-04-26T00:59:07.037Z,49.54
2023-04-26T01:02:13.308Z,49.60
2023-04-26T01:05:21.062Z,51.83
2023-04-26T01:08:27.863Z,53.19
2023-04-26T01:11:41.630Z,56.37
2023-04-26T01:14:49.100Z,48.40
2023-04-26T01:17:55.845Z,46.79
2023-04-26T01:21:05.066Z,48.21
2023-04-26T01:24:15.844Z,47.72
2023-04-26T01:27:22.657Z,46.93
2023-04-26T01:30:29.073Z,49.02
2023-04-26T01:33:35.913Z,52.55
2023-04-26T01:36:42.875Z,51.27
2023-04-26T01:39:53.959Z,48.84
2023-04-26T01:43:00.055Z,50.15
2023-04-26T01:46:08.735Z,49.37
2023-04-26T01:49:15.039Z,50.61
2023-04-26T01:52:21.970Z,54.23
2023-04-26T01:55:30.592Z,55.50
2023-04-26T01:58:37.520Z,53.41
2023-04-26T02:01:46.030Z,53.67
2023-04-26T02:04:52.805Z,51.30
2023-04-26T02:07:58.852Z,53.99
2023-04-26T02:11:08.257Z,59.30
2023-04-26T02:14:16.072Z,63.52
2023-04-26T02:17:23.999Z,67.16
2023-04-26T02:20:29.880Z,62.87
2023-04-26T02:23:36.690Z,62.30
2023-04-26T02:26:45.289Z,64.10
2023-04-26T02:29:52.112Z,65.79
2023-04-26T02:32:58.548Z,69.90
2023-04-26T02:36:08.416Z,68.65
2023-04-26T02:39:17.309Z,67.64
2023-04-26T02:42:26.900Z,66.35
2023-04-26T02:45:33.133Z,63.87
2023-04-26T02:48:40.010Z,68.46
2023-04-26T02:51:46.444Z,66.05
2023-04-26T02:54:59.554Z,68.02
2023-04-26T02:58:18.727Z,64.61
2023-04-26T03:01:31.671Z,63.38
2023-04-26T03:04:38.853Z,65.22
2023-04-26T03:07:45.667Z,65.35
2023-04-26T03:10:51.652Z,62.20
2023-04-26T03:14:01.627Z,64.12
2023-04-26T03:17:16.586Z,63.56
2023-04-26T03:20:28.486Z,60.68
2023-04-26T03:23:34.470Z,60.29
2023-04-26T03:26:44.341Z,61.32
2023-04-26T03:29:53.210Z,63.45
2023-04-26T03:33:00.374Z,66.09
2023-04-26T03:36:06.755Z,69.19
2023-04-26T03:39:13.789Z,74.60
2023-04-26T03:42:19.776Z,77.89
2023-04-26T03:45:29.747Z,79.13
2023-04-26T03:48:35.718Z,74.54
2023-04-26T03:51:42.521Z,73.68
2023-04-26T03:54:48.621Z,74.07
2023-04-26T03:57:57.122Z,76.85
2023-04-26T04:01:05.679Z,79.93
2023-04-26T04:04:15.459Z,76.90
2023-04-26T04:07:23.400Z,77.48
2023-04-26T04:10:35.348Z,77.67
2023-04-26T04:13:41.223Z,75.25
2023-04-26T04:16:51.223Z,75.85
2023-04-26T04:19:57.253Z,75.28
2023-04-26T04:23:06.549Z,73.36
2023-04-26T04:26:12.844Z,75.29
2023-04-26T04:29:20.463Z,78.75
2023-04-26T04:32:29.613Z,74.24
2023-04-26T04:35:37.018Z,74.59
2023-04-26T04:38:44.699Z,72.17
2023-04-26T04:41:52.811Z,69.67
2023-04-26T04:45:00.005Z,70.89
2023-04-26T04:48:22.217Z,65.23
2023-04-26T04:51:28.358Z,62.53
2023-04-26T04:54:36.005Z,62.99
2023-04-26T04:57:43.093Z,64.68
2023-04-26T05:00:51.801Z,59.35
2023-04-26T05:04:11.915Z,59.42
2023-04-26T05:07:19.192Z,54.69
2023-04-26T05:10:25.296Z,55.72
2023-04-26T05:13:32.933Z,56.30
2023-04-26T05:16:39.087Z,54.51
2023-04-26T05:19:48.672Z,54.43
2023-04-26T05:22:55.104Z,52.36
2023-04-26T05:26:07.930Z,53.33
2023-04-26T05:29:32.327Z,51.02
2023-04-26T05:32:46.103Z,53.47
2023-04-26T05:36:15.366Z,54.83
2023-04-26T05:39:22.232Z,56.01
2023-04-26T05:42:40.501Z,53.90
2023-04-26T05:45:56.490Z,52.41
2023-04-26T05:49:04.166Z,57.16
2023-04-26T05:52:14.263Z,55.36
2023-04-26T05:55:21.723Z,51.18
2023-04-26T05:58:29.625Z,53.09
2023-04-26T06:01:35.710Z,52.46
2023-04-26T06:04:43.626Z,46.84
2023-04-26T06:07:55.419Z,46.37
2023-04-26T06:11:02.252Z,40.34
2023-04-26T06:14:30.360Z,37.07
2023-04-26T06:17:45.069Z,26.89
2023-04-26T06:20:51.157Z,26.24
2023-04-26T06:24:00.659Z,25.57
2023-04-26T06:27:11.925Z,26.42
2023-04-26T06:30:22.809Z,32.35
2023-04-26T06:33:29.715Z,35.60
2023-04-26T06:36:36.736Z,30.32
2023-04-26T06:39:45.954Z,27.94
2023-04-26T06:42:53.226Z,28.99
2023-04-26T06:46:15.613Z,31.36
2023-04-26T06:49:22.920Z,33.31
2023-04-26T06:52:30.165Z,35.35
2023-04-26T06:55:40.027Z,35.94
2023-04-26T06:59:03.576Z,34.37
2023-04-26T07:02:10.730Z,34.62
2023-04-26T07:05:17.674Z,32.66
2023-04-26T07:08:24.700Z,33.84
2023-04-26T07:11:34.539Z,34.62
2023-04-26T07:14:43.610Z,37.91
2023-04-26T07:17:49.632Z,35.19
2023-04-26T07:20:59.430Z,33.87
2023-04-26T07:24:10.369Z,32.97
2023-04-26T07:27:19.777Z,36.46
2023-04-26T07:30:26.595Z,36.55
2023-04-26T07:33:33.705Z,35.64
2023-04-26T07:36:39.914Z,34.78
2023-04-26T07:39:46.776Z,32.32
2023-04-26T07:42:56.887Z,29.55
2023-04-26T07:46:08.545Z,38.54
2023-04-26T07:49:16.445Z,48.92
2023-04-26T07:52:23.685Z,47.17
2023-04-26T07:55:30.508Z,31.07
2023-04-26T07:58:41.023Z,29.46
2023-04-26T08:01:47.017Z,45.48
2023-04-26T08:04:56.115Z,40.17
2023-04-26T08:08:02.281Z,33.68
2023-04-26T08:11:13.938Z,28.15
2023-04-26T08:14:24.466Z,27.96
2023-04-26T08:17:31.589Z,28.21
2023-04-26T08:20:37.646Z,24.69
2023-04-26T08:23:44.811Z,27.90
2023-04-26T08:26:50.708Z,24.60
2023-04-26T08:30:00.137Z,20.09
2023-04-26T08:33:13.627Z,23.78
2023-04-26T08:36:20.958Z,26.19
2023-04-26T08:39:26.940Z,26.15
2023-04-26T08:42:37.939Z,46.77
2023-04-26T08:45:56.392Z,23.28
2023-04-26T08:49:21.037Z,22.29
2023-04-26T08:52:30.478Z,33.53
2023-04-26T08:55:46.717Z,34.57
2023-04-26T08:58:56.241Z,29.24
2023-04-26T09:02:08.050Z,18.20
2023-04-26T09:05:15.250Z,23.53
2023-04-26T09:08:24.819Z,23.21
2023-04-26T09:11:31.062Z,44.62
2023-04-26T09:14:38.662Z,32.75
2023-04-26T09:17:47.392Z,27.55
2023-04-26T09:21:18.113Z,28.88
2023-04-26T09:24:24.117Z,30.01
2023-04-26T09:27:43.514Z,27.05
2023-04-26T09:30:49.682Z,30.29
2023-04-26T09:34:05.244Z,30.12
2023-04-26T09:37:15.396Z,27.06
2023-04-26T09:40:23.715Z,18.84
2023-04-26T09:43:29.651Z,23.47
2023-04-26T09:46:44.381Z,23.39
2023-04-26T09:49:54.641Z,24.02
2023-04-26T09:53:03.108Z,24.68
2023-04-26T09:56:14.973Z,33.08
2023-04-26T09:59:21.778Z,31.43
2023-04-26T10:02:31.596Z,27.33
2023-04-26T10:05:41.744Z,33.25
2023-04-26T10:08:48.789Z,24.99
2023-04-26T10:11:56.428Z,20.10
2023-04-26T10:15:02.697Z,19.60
2023-04-26T10:18:10.076Z,18.96
2023-04-26T10:21:36.530Z,15.87
2023-04-26T10:24:43.968Z,20.70
2023-04-26T10:27:57.883Z,19.15
2023-04-26T10:31:05.836Z,17.06
2023-04-26T10:34:25.478Z,19.41
2023-04-26T10:37:34.963Z,21.65
2023-04-26T10:40:46.207Z,18.89
2023-04-26T10:44:00.115Z,18.43
2023-04-26T10:47:33.629Z,15.22
2023-04-26T10:51:12.778Z,18.44
2023-04-26T10:54:21.484Z,11.71
2023-04-26T10:57:54.209Z,19.26
2023-04-26T11:01:12.044Z,20.42
2023-04-26T11:04:32.836Z,14.43
2023-04-26T11:07:44.074Z,16.03
2023-04-26T11:11:02.831Z,16.81
2023-04-26T11:14:10.338Z,19.01
2023-04-26T11:17:17.645Z,14.51
2023-04-26T11:20:30.776Z,15.06
2023-04-26T11:23:38.759Z,16.44
2023-04-26T11:26:54.998Z,18.97
2023-04-26T11:30:05.521Z,18.86
2023-04-26T11:33:23.333Z,15.54
2023-04-26T11:36:30.265Z,12.45
2023-04-26T11:39:40.600Z,14.03
2023-04-26T11:42:50.172Z,15.01
2023-04-26T11:46:09.384Z,14.10
2023-04-26T11:49:30.668Z,23.99
2023-04-26T11:52:37.282Z,18.35
2023-04-26T11:55:44.360Z,16.85
2023-04-26T11:58:56.774Z,19.14
2023-04-26T12:02:10.551Z,22.26
2023-04-26T12:05:31.867Z,25.05
2023-04-26T12:08:40.885Z,23.21
2023-04-26T12:11:53.099Z,15.18
2023-04-26T12:15:02.482Z,17.85
2023-04-26T12:18:12.977Z,19.76
2023-04-26T12:21:23.233Z,20.77
2023-04-26T12:24:37.012Z,22.71
2023-04-26T12:27:44.339Z,18.51
2023-04-26T12:30:56.551Z,16.36
2023-04-26T12:34:03.442Z,18.06
2023-04-26T12:37:09.537Z,16.23
2023-04-26T12:40:17.035Z,21.67
2023-04-26T12:43:24.427Z,20.28
2023-04-26T12:46:41.613Z,17.70
2023-04-26T12:49:47.842Z,18.54
2023-04-26T12:52:54.705Z,18.00
2023-04-26T12:56:00.703Z,23.81
2023-04-26T12:59:08.167Z,26.02
2023-04-26T13:02:16.813Z,30.05
2023-04-26T13:05:24.949Z,21.43
2023-04-26T13:08:31.920Z,21.25
2023-04-26T13:11:38.752Z,19.48
2023-04-26T13:14:44.694Z,19.04
2023-04-26T13:17:54.219Z,20.40
2023-04-26T13:21:05.387Z,22.04
2023-04-26T13:24:12.254Z,22.54
2023-04-26T13:27:18.475Z,19.82
2023-04-26T13:30:35.337Z,14.42
2023-04-26T13:33:43.908Z,21.26
2023-04-26T13:37:00.978Z,22.62
2023-04-26T13:40:08.618Z,18.57
2023-04-26T13:43:15.754Z,18.35
2023-04-26T13:46:21.732Z,18.81
2023-04-26T13:49:31.399Z,19.48
2023-04-26T13:52:51.425Z,21.47
2023-04-26T13:55:58.381Z,23.50
2023-04-26T13:59:06.552Z,17.45
2023-04-26T14:02:14.323Z,18.34
2023-04-26T14:05:31.685Z,18.42
2023-04-26T14:08:38.545Z,17.95
2023-04-26T14:11:57.101Z,39.22
2023-04-26T14:15:29.669Z,50.57
2023-04-26T14:18:36.036Z,100.54
2023-04-26T14:21:45.731Z,19.25
2023-04-26T14:24:51.928Z,27.51
2023-04-26T14:27:58.791Z,64.17
2023-04-26T14:31:04.814Z,28.43
2023-04-26T14:34:16.649Z,48.25
2023-04-26T14:37:32.579Z,24.43
2023-04-26T14:40:40.683Z,24.21
2023-04-26T14:43:46.755Z,30.84
2023-04-26T14:46:54.069Z,20.67
2023-04-26T14:50:01.043Z,21.32
2023-04-26T14:53:10.758Z,27.34
2023-04-26T14:56:24.113Z,16.35
2023-04-26T14:59:31.020Z,17.13
2023-04-26T15:02:37.260Z,20.45
2023-04-26T15:05:44.125Z,28.41
2023-04-26T15:08:52.930Z,26.14
2023-04-26T15:12:00.033Z,20.88
2023-04-26T15:15:14.630Z,24.12
2023-04-26T15:18:21.677Z,25.81
2023-04-26T15:21:29.194Z,24.37
2023-04-26T15:24:44.377Z,19.48
2023-04-26T15:27:50.800Z,16.34
2023-04-26T15:31:05.917Z,15.72
2023-04-26T15:34:12.250Z,22.33
2023-04-26T15:37:26.189Z,20.68
2023-04-26T15:40:38.335Z,20.97
2023-04-26T15:43:46.792Z,21.23
2023-04-26T15:46:52.877Z,31.93
2023-04-26T15:50:05.096Z,35.31
2023-04-26T15:53:11.360Z,33.53
2023-04-26T15:56:22.695Z,26.25
2023-04-26T15:59:30.367Z,26.50
2023-04-26T16:02:37.512Z,31.94
2023-04-26T16:05:46.590Z,33.36
2023-04-26T16:08:53.461Z,54.95
2023-04-26T16:12:05.062Z,42.03
2023-04-26T16:15:14.737Z,29.57
2023-04-26T16:18:21.190Z,24.65
2023-04-26T16:21:34.096Z,24.81
2023-04-26T16:24:40.427Z,24.94
2023-04-26T16:27:49.816Z,36.45
2023-04-26T16:30:56.332Z,31.43
2023-04-26T16:34:05.330Z,28.48
2023-04-26T16:37:11.329Z,22.80
2023-04-26T16:40:18.482Z,32.24
2023-04-26T16:43:27.810Z,23.22
2023-04-26T16:46:34.728Z,29.24
2023-04-26T16:49:40.864Z,20.86
2023-04-26T16:52:47.706Z,39.44
2023-04-26T16:55:56.837Z,39.70
2023-04-26T16:59:06.794Z,37.99
2023-04-26T17:02:12.785Z,37.31
2023-04-26T17:05:20.053Z,37.06
2023-04-26T17:08:27.649Z,39.72
2023-04-26T17:11:35.764Z,40.36
2023-04-26T17:14:44.368Z,37.73
2023-04-26T17:17:58.142Z,37.94
2023-04-26T17:21:04.185Z,34.12
2023-04-26T17:24:11.776Z,53.57
2023-04-26T17:27:18.347Z,53.86
2023-04-26T17:30:28.200Z,49.24
2023-04-26T17:33:36.549Z,48.47
2023-04-26T17:36:43.537Z,37.17
2023-04-26T17:39:49.530Z,38.66
2023-04-26T17:42:56.551Z,60.74
2023-04-26T17:46:08.413Z,50.98
2023-04-26T17:49:15.309Z,50.44
2023-04-26T17:52:21.250Z,58.89
2023-04-26T17:55:28.039Z,82.19
2023-04-26T17:58:34.062Z,62.60
2023-04-26T18:01:46.558Z,56.21
2023-04-26T18:04:53.349Z,108.22
2023-04-26T18:08:00.988Z,85.91
2023-04-26T18:11:07.219Z,96.25
2023-04-26T18:14:14.147Z,77.28
2023-04-26T18:17:22.881Z,80.05
2023-04-26T18:20:32.308Z,95.90
2023-04-26T18:23:38.281Z,114.97
2023-04-26T18:26:45.125Z,87.02
2023-04-26T18:29:51.130Z,70.72
2023-04-26T18:33:00.565Z,60.90
2023-04-26T18:36:06.975Z,58.15
2023-04-26T18:39:19.939Z,42.10
2023-04-26T18:42:29.765Z,57.40
2023-04-26T18:45:36.732Z,80.59
2023-04-26T18:48:49.225Z,102.57
2023-04-26T18:51:57.549Z,106.35
2023-04-26T18:55:03.846Z,135.56
2023-04-26T18:58:10.706Z,96.82
2023-04-26T19:01:18.841Z,93.86
2023-04-26T19:04:28.997Z,62.12
2023-04-26T19:07:41.937Z,62.23
2023-04-26T19:10:48.808Z,82.80
2023-04-26T19:14:00.921Z,98.86
2023-04-26T19:17:19.224Z,154.91
2023-04-26T19:20:29.835Z,243.82
2023-04-26T19:23:36.974Z,183.70
2023-04-26T19:26:45.851Z,144.05
2023-04-26T19:29:59.839Z,123.31
2023-04-26T19:33:06.277Z,77.26
2023-04-26T19:36:17.522Z,82.01
2023-04-26T19:39:26.448Z,89.42
2023-04-26T19:42:33.434Z,99.84
2023-04-26T19:45:41.201Z,108.40
2023-04-26T19:48:48.048Z,113.08
2023-04-26T19:51:56.817Z,134.69
2023-04-26T19:55:03.807Z,125.00
2023-04-26T19:58:10.962Z,128.32
2023-04-26T20:01:17.799Z,124.46
2023-04-26T20:04:24.163Z,123.75
2023-04-26T20:07:45.350Z,128.54
2023-04-26T20:10:51.408Z,128.75
2023-04-26T20:13:58.310Z,131.90
2023-04-26T20:17:05.131Z,141.06
2023-04-26T20:20:22.497Z,145.06
2023-04-26T20:23:33.498Z,145.35
2023-04-26T20:26:40.271Z,151.27
2023-04-26T20:29:46.112Z,148.65
2023-04-26T20:32:52.969Z,151.80
2023-04-26T20:35:59.649Z,154.37
2023-04-26T20:39:10.089Z,170.82
2023-04-26T20:42:16.341Z,183.12
2023-04-26T20:45:30.236Z,183.76
2023-04-26T20:48:39.493Z,166.16
2023-04-26T20:51:46.493Z,157.23
2023-04-26T20:54:56.540Z,138.38
2023-04-26T20:58:03.256Z,134.07
2023-04-26T21:01:09.928Z,131.90
2023-04-26T21:04:17.006Z,131.77
2023-04-26T21:07:23.120Z,125.45
2023-04-26T21:10:32.637Z,129.39
2023-04-26T21:13:38.654Z,125.83
2023-04-26T21:16:45.459Z,124.17
2023-04-26T21:19:51.418Z,116.41
2023-04-26T21:22:58.291Z,114.75
2023-04-26T21:26:07.194Z,110.31
2023-04-26T21:29:13.931Z,108.64
2023-04-26T21:32:19.929Z,102.88
2023-04-26T21:35:29.681Z,104.42
2023-04-26T21:38:35.750Z,108.09
2023-04-26T21:41:46.513Z,97.77
2023-04-26T21:44:53.643Z,95.11
2023-04-26T21:48:00.433Z,92.72
2023-04-26T21:51:06.808Z,90.56
2023-04-26T21:54:13.911Z,88.99
2023-04-26T21:57:30.354Z,95.34
2023-04-26T22:00:42.568Z,83.15
2023-04-26T22:03:48.904Z,80.65
2023-04-26T22:06:55.782Z,81.09
2023-04-26T22:10:01.987Z,80.69
2023-04-26T22:13:15.400Z,83.44
2023-04-26T22:16:21.623Z,83.21
2023-04-26T22:19:29.791Z,80.59
2023-04-26T22:22:35.802Z,77.37
2023-04-26T22:25:42.903Z,72.85
2023-04-26T22:28:55.567Z,67.99
2023-04-26T22:32:06.369Z,71.50
2023-04-26T22:35:12.722Z,69.07
2023-04-26T22:38:19.523Z,67.66
2023-04-26T22:41:25.475Z,68.52
2023-04-26T22:44:34.874Z,68.42
2023-04-26T22:47:41.091Z,67.13
2023-04-26T22:50:47.910Z,64.32
2023-04-26T22:53:56.498Z,61.93
2023-04-26T22:57:03.648Z,58.34
2023-04-26T23:00:20.280Z,60.46
2023-04-26T23:03:27.169Z,57.67
2023-04-26T23:06:33.427Z,60.82
2023-04-26T23:09:42.959Z,59.55
2023-04-26T23:12:49.534Z,63.81
2023-04-26T23:15:59.000Z,68.63
2023-04-26T23:19:12.204Z,72.17
2023-04-26T23:22:19.123Z,78.77
2023-04-26T23:25:25.230Z,83.22
2023-04-26T23:28:32.188Z,86.79
2023-04-26T23:31:46.615Z,84.24
2023-04-26T23:34:53.361Z,84.84
2023-04-26T23:37:59.220Z,85.41
2023-04-26T23:41:20.120Z,84.57
2023-04-26T23:44:25.990Z,86.18
2023-04-26T23:47:35.383Z,85.33
2023-04-26T23:50:41.256Z,86.27
2023-04-26T23:53:48.123Z,88.29
2023-04-26T23:56:54.008Z,90.06
